sensor_id;sensor_type;location;lat;lon;timestamp;P1;durP1;ratioP1;P2;durP2;ratioP2
31786;SDS011;18356;52.380;9.820;2023-02-03T00:02:00;31.37;;;19.90;;
31786;SDS011;18356;52.380;9.820;2023-02-03T00:04:26;32.33;;;20.67;;
31786;SDS011;18356;52.380;9.820;2023-02-03T00:06:52;30.60;;;19.47;;
31786;SDS011;18356;52.380;9.820;2023-02-03T00:09:18;34.07;;;22.93;;
31786;SDS011;18356;52.380;9.820;2023-02-03T00:11:45;35.13;;;22.90;;
31786;SDS011;18356;52.380;9.820;2023-02-03T00:14:11;32.53;;;22.20;;
31786;SDS011;18356;52.380;9.820;2023-02-03T00:16:37;36.23;;;22.90;;
31786;SDS011;18356;52.380;9.820;2023-02-03T00:19:03;35.00;;;21.80;;
31786;SDS011;18356;52.380;9.820;2023-02-03T00:21:29;34.23;;;22.13;;
31786;SDS011;18356;52.380;9.820;2023-02-03T00:23:55;33.93;;;22.87;;
31786;SDS011;18356;52.380;9.820;2023-02-03T00:26:21;32.40;;;21.03;;
31786;SDS011;18356;52.380;9.820;2023-02-03T00:28:49;33.30;;;21.97;;
31786;SDS011;18356;52.380;9.820;2023-02-03T00:31:16;35.20;;;22.43;;
31786;SDS011;18356;52.380;9.820;2023-02-03T00:33:43;32.40;;;22.30;;
31786;SDS011;18356;52.380;9.820;2023-02-03T00:36:09;34.83;;;22.70;;
31786;SDS011;18356;52.380;9.820;2023-02-03T00:38:35;35.63;;;21.70;;
31786;SDS011;18356;52.380;9.820;2023-02-03T00:41:01;29.17;;;20.67;;
31786;SDS011;18356;52.380;9.820;2023-02-03T00:43:27;35.50;;;24.87;;
31786;SDS011;18356;52.380;9.820;2023-02-03T00:45:53;32.30;;;21.13;;
31786;SDS011;18356;52.380;9.820;2023-02-03T00:48:19;31.57;;;21.17;;
31786;SDS011;18356;52.380;9.820;2023-02-03T00:50:45;29.37;;;20.63;;
31786;SDS011;18356;52.380;9.820;2023-02-03T00:53:11;34.07;;;22.17;;
31786;SDS011;18356;52.380;9.820;2023-02-03T00:55:37;34.10;;;21.67;;
31786;SDS011;18356;52.380;9.820;2023-02-03T00:58:04;33.73;;;22.40;;
31786;SDS011;18356;52.380;9.820;2023-02-03T01:00:30;33.37;;;22.67;;
31786;SDS011;18356;52.380;9.820;2023-02-03T01:02:56;33.77;;;21.93;;
31786;SDS011;18356;52.380;9.820;2023-02-03T01:05:22;33.67;;;24.17;;
31786;SDS011;18356;52.380;9.820;2023-02-03T01:07:48;34.40;;;20.53;;
31786;SDS011;18356;52.380;9.820;2023-02-03T01:10:14;31.30;;;20.20;;
31786;SDS011;18356;52.380;9.820;2023-02-03T01:12:40;30.50;;;20.93;;
31786;SDS011;18356;52.380;9.820;2023-02-03T01:15:06;33.47;;;20.53;;
31786;SDS011;18356;52.380;9.820;2023-02-03T01:17:32;31.30;;;20.70;;
31786;SDS011;18356;52.380;9.820;2023-02-03T01:19:58;34.20;;;21.13;;
31786;SDS011;18356;52.380;9.820;2023-02-03T01:22:24;30.77;;;19.77;;
31786;SDS011;18356;52.380;9.820;2023-02-03T01:24:50;30.70;;;19.47;;
31786;SDS011;18356;52.380;9.820;2023-02-03T01:27:16;29.90;;;20.37;;
31786;SDS011;18356;52.380;9.820;2023-02-03T01:29:43;34.87;;;20.27;;
31786;SDS011;18356;52.380;9.820;2023-02-03T01:32:09;34.90;;;20.57;;
31786;SDS011;18356;52.380;9.820;2023-02-03T01:34:35;28.90;;;19.57;;
31786;SDS011;18356;52.380;9.820;2023-02-03T01:37:01;28.67;;;19.27;;
31786;SDS011;18356;52.380;9.820;2023-02-03T01:39:27;28.90;;;19.80;;
31786;SDS011;18356;52.380;9.820;2023-02-03T01:41:54;28.03;;;18.60;;
31786;SDS011;18356;52.380;9.820;2023-02-03T01:49:45;25.57;;;19.57;;
31786;SDS011;18356;52.380;9.820;2023-02-03T01:52:12;31.33;;;19.97;;
31786;SDS011;18356;52.380;9.820;2023-02-03T01:54:39;32.83;;;19.43;;
31786;SDS011;18356;52.380;9.820;2023-02-03T01:57:09;28.57;;;18.43;;
31786;SDS011;18356;52.380;9.820;2023-02-03T01:59:36;29.10;;;18.83;;
31786;SDS011;18356;52.380;9.820;2023-02-03T02:02:02;24.40;;;17.77;;
31786;SDS011;18356;52.380;9.820;2023-02-03T02:04:33;29.07;;;17.47;;
31786;SDS011;18356;52.380;9.820;2023-02-03T02:07:01;25.77;;;17.40;;
31786;SDS011;18356;52.380;9.820;2023-02-03T02:09:28;23.20;;;16.23;;
31786;SDS011;18356;52.380;9.820;2023-02-03T02:11:54;27.07;;;17.70;;
31786;SDS011;18356;52.380;9.820;2023-02-03T02:14:20;24.73;;;16.47;;
31786;SDS011;18356;52.380;9.820;2023-02-03T02:16:48;23.60;;;15.33;;
31786;SDS011;18356;52.380;9.820;2023-02-03T02:37:06;22.23;;;13.90;;
31786;SDS011;18356;52.380;9.820;2023-02-03T02:42:04;19.97;;;11.83;;
31786;SDS011;18356;52.380;9.820;2023-02-03T02:44:36;16.63;;;12.10;;
31786;SDS011;18356;52.380;9.820;2023-02-03T02:47:05;17.73;;;12.13;;
31786;SDS011;18356;52.380;9.820;2023-02-03T02:49:34;20.63;;;12.27;;
31786;SDS011;18356;52.380;9.820;2023-02-03T02:52:03;18.03;;;12.07;;
31786;SDS011;18356;52.380;9.820;2023-02-03T02:54:30;23.70;;;12.70;;
31786;SDS011;18356;52.380;9.820;2023-02-03T02:56:58;22.93;;;11.43;;
31786;SDS011;18356;52.380;9.820;2023-02-03T02:59:24;15.60;;;11.53;;
31786;SDS011;18356;52.380;9.820;2023-02-03T03:01:50;20.10;;;11.03;;
31786;SDS011;18356;52.380;9.820;2023-02-03T03:04:18;19.40;;;11.00;;
31786;SDS011;18356;52.380;9.820;2023-02-03T03:06:55;20.03;;;14.13;;
31786;SDS011;18356;52.380;9.820;2023-02-03T03:09:44;27.03;;;23.67;;
31786;SDS011;18356;52.380;9.820;2023-02-03T03:12:10;17.03;;;11.40;;
31786;SDS011;18356;52.380;9.820;2023-02-03T03:14:38;23.97;;;16.43;;
31786;SDS011;18356;52.380;9.820;2023-02-03T03:17:06;17.73;;;11.03;;
31786;SDS011;18356;52.380;9.820;2023-02-03T03:19:35;17.77;;;10.70;;
31786;SDS011;18356;52.380;9.820;2023-02-03T03:22:03;20.23;;;10.60;;
31786;SDS011;18356;52.380;9.820;2023-02-03T03:24:32;18.60;;;11.87;;
31786;SDS011;18356;52.380;9.820;2023-02-03T03:27:03;21.53;;;11.30;;
31786;SDS011;18356;52.380;9.820;2023-02-03T03:29:39;15.53;;;10.63;;
31786;SDS011;18356;52.380;9.820;2023-02-03T03:32:06;21.47;;;10.57;;
31786;SDS011;18356;52.380;9.820;2023-02-03T03:34:33;22.77;;;12.20;;
31786;SDS011;18356;52.380;9.820;2023-02-03T03:37:06;18.63;;;10.43;;
31786;SDS011;18356;52.380;9.820;2023-02-03T03:39:38;18.33;;;10.30;;
31786;SDS011;18356;52.380;9.820;2023-02-03T03:44:37;15.33;;;9.73;;
31786;SDS011;18356;52.380;9.820;2023-02-03T03:47:18;20.03;;;10.43;;
31786;SDS011;18356;52.380;9.820;2023-02-03T03:49:46;20.03;;;10.40;;
31786;SDS011;18356;52.380;9.820;2023-02-03T03:52:15;17.10;;;11.37;;
31786;SDS011;18356;52.380;9.820;2023-02-03T03:54:43;17.40;;;8.77;;
31786;SDS011;18356;52.380;9.820;2023-02-03T03:57:15;18.27;;;9.37;;
31786;SDS011;18356;52.380;9.820;2023-02-03T03:59:43;16.57;;;12.27;;
31786;SDS011;18356;52.380;9.820;2023-02-03T04:02:10;18.53;;;8.80;;
31786;SDS011;18356;52.380;9.820;2023-02-03T04:04:38;17.83;;;8.57;;
31786;SDS011;18356;52.380;9.820;2023-02-03T04:07:04;14.60;;;8.10;;
31786;SDS011;18356;52.380;9.820;2023-02-03T04:09:30;15.93;;;8.80;;
31786;SDS011;18356;52.380;9.820;2023-02-03T04:12:00;20.00;;;8.37;;
31786;SDS011;18356;52.380;9.820;2023-02-03T04:14:27;15.70;;;8.17;;
31786;SDS011;18356;52.380;9.820;2023-02-03T04:16:54;15.47;;;7.90;;
31786;SDS011;18356;52.380;9.820;2023-02-03T04:19:20;15.27;;;8.20;;
31786;SDS011;18356;52.380;9.820;2023-02-03T04:21:46;15.43;;;8.13;;
31786;SDS011;18356;52.380;9.820;2023-02-03T04:24:12;22.73;;;10.10;;
31786;SDS011;18356;52.380;9.820;2023-02-03T04:26:38;14.70;;;7.87;;
31786;SDS011;18356;52.380;9.820;2023-02-03T04:29:04;17.17;;;8.37;;
31786;SDS011;18356;52.380;9.820;2023-02-03T04:31:30;19.30;;;8.50;;
31786;SDS011;18356;52.380;9.820;2023-02-03T04:33:56;17.47;;;8.13;;
31786;SDS011;18356;52.380;9.820;2023-02-03T04:36:22;15.80;;;8.27;;
31786;SDS011;18356;52.380;9.820;2023-02-03T04:38:48;18.60;;;8.77;;
31786;SDS011;18356;52.380;9.820;2023-02-03T04:41:15;16.37;;;8.50;;
31786;SDS011;18356;52.380;9.820;2023-02-03T04:43:41;16.40;;;8.37;;
31786;SDS011;18356;52.380;9.820;2023-02-03T04:46:07;18.23;;;12.17;;
31786;SDS011;18356;52.380;9.820;2023-02-03T04:48:34;17.73;;;8.67;;
31786;SDS011;18356;52.380;9.820;2023-02-03T04:51:04;24.50;;;19.87;;
31786;SDS011;18356;52.380;9.820;2023-02-03T04:53:30;16.33;;;8.83;;
31786;SDS011;18356;52.380;9.820;2023-02-03T04:55:56;15.87;;;8.50;;
31786;SDS011;18356;52.380;9.820;2023-02-03T04:58:22;15.53;;;7.80;;
31786;SDS011;18356;52.380;9.820;2023-02-03T05:00:50;17.03;;;8.50;;
31786;SDS011;18356;52.380;9.820;2023-02-03T05:03:16;17.23;;;7.73;;
31786;SDS011;18356;52.380;9.820;2023-02-03T05:05:42;14.03;;;8.00;;
31786;SDS011;18356;52.380;9.820;2023-02-03T05:08:08;20.37;;;15.13;;
31786;SDS011;18356;52.380;9.820;2023-02-03T05:10:34;16.07;;;7.60;;
31786;SDS011;18356;52.380;9.820;2023-02-03T05:13:00;11.43;;;7.17;;
31786;SDS011;18356;52.380;9.820;2023-02-03T05:15:26;14.70;;;7.67;;
31786;SDS011;18356;52.380;9.820;2023-02-03T05:17:52;15.73;;;6.90;;
31786;SDS011;18356;52.380;9.820;2023-02-03T05:20:19;13.70;;;6.87;;
31786;SDS011;18356;52.380;9.820;2023-02-03T05:22:45;15.80;;;7.40;;
31786;SDS011;18356;52.380;9.820;2023-02-03T05:25:11;16.03;;;7.57;;
31786;SDS011;18356;52.380;9.820;2023-02-03T05:27:37;18.57;;;9.93;;
31786;SDS011;18356;52.380;9.820;2023-02-03T05:30:04;18.67;;;7.43;;
31786;SDS011;18356;52.380;9.820;2023-02-03T05:32:30;16.03;;;7.47;;
31786;SDS011;18356;52.380;9.820;2023-02-03T05:34:56;14.93;;;7.60;;
31786;SDS011;18356;52.380;9.820;2023-02-03T05:37:22;16.13;;;7.20;;
31786;SDS011;18356;52.380;9.820;2023-02-03T05:39:48;16.37;;;7.00;;
31786;SDS011;18356;52.380;9.820;2023-02-03T05:42:14;17.60;;;7.30;;
31786;SDS011;18356;52.380;9.820;2023-02-03T05:44:40;12.90;;;7.10;;
31786;SDS011;18356;52.380;9.820;2023-02-03T05:47:06;20.33;;;7.37;;
31786;SDS011;18356;52.380;9.820;2023-02-03T05:49:32;17.57;;;8.77;;
31786;SDS011;18356;52.380;9.820;2023-02-03T05:51:58;13.30;;;8.67;;
31786;SDS011;18356;52.380;9.820;2023-02-03T05:54:24;13.73;;;7.10;;
31786;SDS011;18356;52.380;9.820;2023-02-03T05:56:50;15.00;;;7.17;;
31786;SDS011;18356;52.380;9.820;2023-02-03T05:59:16;14.90;;;6.63;;
31786;SDS011;18356;52.380;9.820;2023-02-03T06:01:42;14.70;;;6.87;;
31786;SDS011;18356;52.380;9.820;2023-02-03T06:04:08;16.80;;;7.17;;
31786;SDS011;18356;52.380;9.820;2023-02-03T06:06:35;18.17;;;7.33;;
31786;SDS011;18356;52.380;9.820;2023-02-03T06:09:02;18.53;;;7.10;;
31786;SDS011;18356;52.380;9.820;2023-02-03T06:11:28;17.43;;;8.17;;
31786;SDS011;18356;52.380;9.820;2023-02-03T06:13:55;18.53;;;6.67;;
31786;SDS011;18356;52.380;9.820;2023-02-03T06:16:23;17.07;;;10.20;;
31786;SDS011;18356;52.380;9.820;2023-02-03T06:18:49;12.87;;;6.17;;
31786;SDS011;18356;52.380;9.820;2023-02-03T06:21:16;14.93;;;6.70;;
31786;SDS011;18356;52.380;9.820;2023-02-03T06:23:42;15.50;;;6.70;;
31786;SDS011;18356;52.380;9.820;2023-02-03T06:26:08;16.10;;;7.20;;
31786;SDS011;18356;52.380;9.820;2023-02-03T06:28:34;14.50;;;7.10;;
31786;SDS011;18356;52.380;9.820;2023-02-03T06:31:02;23.40;;;7.60;;
31786;SDS011;18356;52.380;9.820;2023-02-03T06:33:28;24.20;;;9.60;;
31786;SDS011;18356;52.380;9.820;2023-02-03T06:35:54;17.30;;;7.60;;
31786;SDS011;18356;52.380;9.820;2023-02-03T06:38:20;19.13;;;8.03;;
31786;SDS011;18356;52.380;9.820;2023-02-03T06:40:46;15.47;;;8.17;;
31786;SDS011;18356;52.380;9.820;2023-02-03T06:43:12;24.70;;;17.83;;
31786;SDS011;18356;52.380;9.820;2023-02-03T06:45:38;19.30;;;7.80;;
31786;SDS011;18356;52.380;9.820;2023-02-03T06:48:04;17.60;;;7.63;;
31786;SDS011;18356;52.380;9.820;2023-02-03T06:50:31;15.53;;;7.97;;
31786;SDS011;18356;52.380;9.820;2023-02-03T06:52:57;17.10;;;8.67;;
31786;SDS011;18356;52.380;9.820;2023-02-03T06:55:24;15.27;;;8.07;;
31786;SDS011;18356;52.380;9.820;2023-02-03T06:57:50;13.63;;;7.97;;
31786;SDS011;18356;52.380;9.820;2023-02-03T07:00:16;16.27;;;8.03;;
31786;SDS011;18356;52.380;9.820;2023-02-03T07:02:43;17.67;;;7.63;;
31786;SDS011;18356;52.380;9.820;2023-02-03T07:05:10;16.83;;;7.60;;
31786;SDS011;18356;52.380;9.820;2023-02-03T07:07:36;14.50;;;7.97;;
31786;SDS011;18356;52.380;9.820;2023-02-03T07:10:04;18.27;;;10.03;;
31786;SDS011;18356;52.380;9.820;2023-02-03T07:12:31;15.53;;;8.30;;
31786;SDS011;18356;52.380;9.820;2023-02-03T07:15:01;15.77;;;7.80;;
31786;SDS011;18356;52.380;9.820;2023-02-03T07:17:29;17.57;;;7.67;;
31786;SDS011;18356;52.380;9.820;2023-02-03T07:19:58;15.33;;;7.80;;
31786;SDS011;18356;52.380;9.820;2023-02-03T07:22:26;16.70;;;7.83;;
31786;SDS011;18356;52.380;9.820;2023-02-03T07:24:54;15.10;;;8.00;;
31786;SDS011;18356;52.380;9.820;2023-02-03T07:27:20;16.83;;;7.83;;
31786;SDS011;18356;52.380;9.820;2023-02-03T07:29:46;11.67;;;6.43;;
31786;SDS011;18356;52.380;9.820;2023-02-03T07:32:12;12.73;;;9.27;;
31786;SDS011;18356;52.380;9.820;2023-02-03T07:34:38;11.97;;;6.80;;
31786;SDS011;18356;52.380;9.820;2023-02-03T07:37:04;14.40;;;12.77;;
31786;SDS011;18356;52.380;9.820;2023-02-03T07:39:30;14.00;;;7.10;;
31786;SDS011;18356;52.380;9.820;2023-02-03T07:41:57;10.33;;;6.60;;
31786;SDS011;18356;52.380;9.820;2023-02-03T07:44:24;12.50;;;8.00;;
31786;SDS011;18356;52.380;9.820;2023-02-03T07:46:50;13.97;;;6.90;;
31786;SDS011;18356;52.380;9.820;2023-02-03T07:49:16;12.13;;;6.37;;
31786;SDS011;18356;52.380;9.820;2023-02-03T07:51:42;11.63;;;6.40;;
31786;SDS011;18356;52.380;9.820;2023-02-03T07:54:08;12.43;;;6.87;;
31786;SDS011;18356;52.380;9.820;2023-02-03T07:56:34;11.40;;;7.00;;
31786;SDS011;18356;52.380;9.820;2023-02-03T07:59:00;12.63;;;6.50;;
31786;SDS011;18356;52.380;9.820;2023-02-03T08:01:26;17.83;;;6.90;;
31786;SDS011;18356;52.380;9.820;2023-02-03T08:03:53;12.53;;;6.37;;
31786;SDS011;18356;52.380;9.820;2023-02-03T08:06:19;9.53;;;6.17;;
31786;SDS011;18356;52.380;9.820;2023-02-03T08:08:45;11.13;;;6.23;;
31786;SDS011;18356;52.380;9.820;2023-02-03T08:11:11;13.57;;;11.67;;
31786;SDS011;18356;52.380;9.820;2023-02-03T08:13:37;12.00;;;7.43;;
31786;SDS011;18356;52.380;9.820;2023-02-03T08:16:04;12.33;;;10.60;;
31786;SDS011;18356;52.380;9.820;2023-02-03T08:18:30;13.40;;;6.13;;
31786;SDS011;18356;52.380;9.820;2023-02-03T08:20:56;11.07;;;6.87;;
31786;SDS011;18356;52.380;9.820;2023-02-03T08:23:22;7.73;;;5.83;;
31786;SDS011;18356;52.380;9.820;2023-02-03T08:25:51;13.00;;;6.73;;
31786;SDS011;18356;52.380;9.820;2023-02-03T08:28:17;12.37;;;6.43;;
31786;SDS011;18356;52.380;9.820;2023-02-03T08:30:43;12.13;;;5.90;;
31786;SDS011;18356;52.380;9.820;2023-02-03T08:33:09;15.70;;;7.73;;
31786;SDS011;18356;52.380;9.820;2023-02-03T08:35:35;16.97;;;12.10;;
31786;SDS011;18356;52.380;9.820;2023-02-03T08:38:03;12.67;;;5.90;;
31786;SDS011;18356;52.380;9.820;2023-02-03T08:40:29;10.40;;;6.33;;
31786;SDS011;18356;52.380;9.820;2023-02-03T08:42:55;12.17;;;6.03;;
31786;SDS011;18356;52.380;9.820;2023-02-03T08:45:21;11.47;;;5.70;;
31786;SDS011;18356;52.380;9.820;2023-02-03T08:47:47;12.70;;;6.80;;
31786;SDS011;18356;52.380;9.820;2023-02-03T08:50:13;11.07;;;5.87;;
31786;SDS011;18356;52.380;9.820;2023-02-03T08:52:39;13.27;;;6.27;;
31786;SDS011;18356;52.380;9.820;2023-02-03T08:55:05;12.00;;;6.43;;
31786;SDS011;18356;52.380;9.820;2023-02-03T08:57:35;17.00;;;7.43;;
31786;SDS011;18356;52.380;9.820;2023-02-03T09:00:02;20.77;;;8.90;;
31786;SDS011;18356;52.380;9.820;2023-02-03T09:02:28;17.73;;;7.37;;
31786;SDS011;18356;52.380;9.820;2023-02-03T09:04:54;14.40;;;7.60;;
31786;SDS011;18356;52.380;9.820;2023-02-03T09:07:20;15.37;;;7.60;;
31786;SDS011;18356;52.380;9.820;2023-02-03T09:09:46;17.63;;;7.47;;
31786;SDS011;18356;52.380;9.820;2023-02-03T09:12:12;20.07;;;7.77;;
31786;SDS011;18356;52.380;9.820;2023-02-03T09:14:39;27.73;;;16.80;;
31786;SDS011;18356;52.380;9.820;2023-02-03T09:17:05;15.80;;;6.53;;
31786;SDS011;18356;52.380;9.820;2023-02-03T09:19:32;14.43;;;6.50;;
31786;SDS011;18356;52.380;9.820;2023-02-03T09:21:58;11.50;;;5.80;;
31786;SDS011;18356;52.380;9.820;2023-02-03T09:24:25;13.17;;;6.00;;
31786;SDS011;18356;52.380;9.820;2023-02-03T09:26:51;22.07;;;13.23;;
31786;SDS011;18356;52.380;9.820;2023-02-03T09:29:17;21.53;;;12.03;;
31786;SDS011;18356;52.380;9.820;2023-02-03T09:31:43;13.70;;;5.50;;
31786;SDS011;18356;52.380;9.820;2023-02-03T09:34:11;14.27;;;5.93;;
31786;SDS011;18356;52.380;9.820;2023-02-03T09:36:37;16.47;;;6.93;;
31786;SDS011;18356;52.380;9.820;2023-02-03T09:39:03;14.13;;;5.40;;
31786;SDS011;18356;52.380;9.820;2023-02-03T09:44:16;19.77;;;6.57;;
31786;SDS011;18356;52.380;9.820;2023-02-03T09:46:47;14.03;;;6.10;;
31786;SDS011;18356;52.380;9.820;2023-02-03T09:49:58;13.73;;;5.23;;
31786;SDS011;18356;52.380;9.820;2023-02-03T09:52:12;13.10;;;5.53;;
31786;SDS011;18356;52.380;9.820;2023-02-03T09:57:19;14.70;;;4.60;;
31786;SDS011;18356;52.380;9.820;2023-02-03T09:59:46;15.80;;;4.97;;
31786;SDS011;18356;52.380;9.820;2023-02-03T10:04:55;11.70;;;4.43;;
31786;SDS011;18356;52.380;9.820;2023-02-03T10:07:26;13.87;;;5.03;;
31786;SDS011;18356;52.380;9.820;2023-02-03T10:10:04;16.10;;;6.50;;
31786;SDS011;18356;52.380;9.820;2023-02-03T10:15:36;15.20;;;3.77;;
31786;SDS011;18356;52.380;9.820;2023-02-03T10:18:10;18.73;;;7.43;;
31786;SDS011;18356;52.380;9.820;2023-02-03T10:20:39;13.40;;;3.43;;
31786;SDS011;18356;52.380;9.820;2023-02-03T10:23:16;13.43;;;4.70;;
31786;SDS011;18356;52.380;9.820;2023-02-03T10:25:43;15.40;;;3.60;;
31786;SDS011;18356;52.380;9.820;2023-02-03T10:28:20;17.40;;;3.80;;
31786;SDS011;18356;52.380;9.820;2023-02-03T10:30:47;11.87;;;3.33;;
31786;SDS011;18356;52.380;9.820;2023-02-03T10:33:15;12.13;;;3.30;;
31786;SDS011;18356;52.380;9.820;2023-02-03T10:35:45;39.53;;;32.80;;
31786;SDS011;18356;52.380;9.820;2023-02-03T10:38:14;34.37;;;25.40;;
31786;SDS011;18356;52.380;9.820;2023-02-03T10:40:44;9.83;;;2.63;;
31786;SDS011;18356;52.380;9.820;2023-02-03T10:43:10;10.67;;;2.37;;
31786;SDS011;18356;52.380;9.820;2023-02-03T10:45:54;15.13;;;7.80;;
31786;SDS011;18356;52.380;9.820;2023-02-03T10:48:20;11.23;;;2.77;;
31786;SDS011;18356;52.380;9.820;2023-02-03T10:50:48;14.07;;;3.13;;
31786;SDS011;18356;52.380;9.820;2023-02-03T10:56:11;17.57;;;5.33;;
31786;SDS011;18356;52.380;9.820;2023-02-03T10:58:38;12.00;;;2.77;;
31786;SDS011;18356;52.380;9.820;2023-02-03T11:01:09;18.30;;;2.90;;
31786;SDS011;18356;52.380;9.820;2023-02-03T11:03:35;18.33;;;3.37;;
31786;SDS011;18356;52.380;9.820;2023-02-03T11:08:29;8.47;;;2.00;;
31786;SDS011;18356;52.380;9.820;2023-02-03T11:11:02;10.47;;;2.83;;
31786;SDS011;18356;52.380;9.820;2023-02-03T11:13:29;14.30;;;2.80;;
31786;SDS011;18356;52.380;9.820;2023-02-03T11:15:59;16.93;;;5.03;;
31786;SDS011;18356;52.380;9.820;2023-02-03T11:20:54;17.67;;;3.90;;
31786;SDS011;18356;52.380;9.820;2023-02-03T11:23:21;15.80;;;3.80;;
31786;SDS011;18356;52.380;9.820;2023-02-03T11:25:47;18.93;;;4.10;;
31786;SDS011;18356;52.380;9.820;2023-02-03T11:28:13;18.60;;;3.00;;
31786;SDS011;18356;52.380;9.820;2023-02-03T11:30:39;18.67;;;3.30;;
31786;SDS011;18356;52.380;9.820;2023-02-03T11:33:16;19.27;;;3.20;;
31786;SDS011;18356;52.380;9.820;2023-02-03T11:35:56;17.40;;;3.33;;
31786;SDS011;18356;52.380;9.820;2023-02-03T11:38:33;18.57;;;3.43;;
31786;SDS011;18356;52.380;9.820;2023-02-03T11:41:00;19.10;;;3.43;;
31786;SDS011;18356;52.380;9.820;2023-02-03T11:43:27;21.60;;;3.50;;
31786;SDS011;18356;52.380;9.820;2023-02-03T11:45:53;20.30;;;3.70;;
31786;SDS011;18356;52.380;9.820;2023-02-03T12:07:21;21.97;;;4.00;;
31786;SDS011;18356;52.380;9.820;2023-02-03T12:09:52;25.50;;;4.33;;
31786;SDS011;18356;52.380;9.820;2023-02-03T12:25:35;27.33;;;4.23;;
31786;SDS011;18356;52.380;9.820;2023-02-03T12:30:51;26.33;;;5.37;;
31786;SDS011;18356;52.380;9.820;2023-02-03T12:33:29;27.27;;;4.57;;
31786;SDS011;18356;52.380;9.820;2023-02-03T12:41:19;27.67;;;4.70;;
31786;SDS011;18356;52.380;9.820;2023-02-03T12:43:48;26.23;;;4.23;;
31786;SDS011;18356;52.380;9.820;2023-02-03T12:46:29;22.17;;;3.97;;
31786;SDS011;18356;52.380;9.820;2023-02-03T12:49:01;28.33;;;4.47;;
31786;SDS011;18356;52.380;9.820;2023-02-03T12:56:54;22.87;;;4.17;;
31786;SDS011;18356;52.380;9.820;2023-02-03T12:59:24;24.27;;;4.03;;
31786;SDS011;18356;52.380;9.820;2023-02-03T13:01:54;30.87;;;4.70;;
31786;SDS011;18356;52.380;9.820;2023-02-03T13:04:42;27.27;;;4.83;;
31786;SDS011;18356;52.380;9.820;2023-02-03T13:07:23;27.33;;;4.50;;
31786;SDS011;18356;52.380;9.820;2023-02-03T13:12:24;25.30;;;3.97;;
31786;SDS011;18356;52.380;9.820;2023-02-03T13:17:32;26.10;;;4.27;;
31786;SDS011;18356;52.380;9.820;2023-02-03T13:20:05;24.40;;;3.90;;
31786;SDS011;18356;52.380;9.820;2023-02-03T13:22:36;26.80;;;4.33;;
31786;SDS011;18356;52.380;9.820;2023-02-03T13:25:07;28.07;;;5.20;;
31786;SDS011;18356;52.380;9.820;2023-02-03T13:32:55;27.07;;;4.53;;
31786;SDS011;18356;52.380;9.820;2023-02-03T13:43:39;30.37;;;4.83;;
31786;SDS011;18356;52.380;9.820;2023-02-03T13:46:16;25.43;;;4.13;;
31786;SDS011;18356;52.380;9.820;2023-02-03T13:48:45;26.80;;;4.33;;
31786;SDS011;18356;52.380;9.820;2023-02-03T13:51:17;27.60;;;4.43;;
31786;SDS011;18356;52.380;9.820;2023-02-03T13:53:47;24.53;;;3.73;;
31786;SDS011;18356;52.380;9.820;2023-02-03T13:56:18;21.40;;;3.30;;
31786;SDS011;18356;52.380;9.820;2023-02-03T14:01:37;20.43;;;4.23;;
31786;SDS011;18356;52.380;9.820;2023-02-03T14:04:04;18.87;;;3.83;;
31786;SDS011;18356;52.380;9.820;2023-02-03T14:09:19;27.13;;;4.17;;
31786;SDS011;18356;52.380;9.820;2023-02-03T14:11:46;17.47;;;3.60;;
31786;SDS011;18356;52.380;9.820;2023-02-03T14:16:47;23.43;;;4.03;;
31786;SDS011;18356;52.380;9.820;2023-02-03T14:27:01;27.00;;;4.23;;
31786;SDS011;18356;52.380;9.820;2023-02-03T14:37:25;22.80;;;3.90;;
31786;SDS011;18356;52.380;9.820;2023-02-03T14:56:22;22.77;;;4.03;;
31786;SDS011;18356;52.380;9.820;2023-02-03T14:58:52;22.43;;;4.13;;
31786;SDS011;18356;52.380;9.820;2023-02-03T15:01:25;24.27;;;4.20;;
31786;SDS011;18356;52.380;9.820;2023-02-03T15:09:11;29.47;;;4.23;;
31786;SDS011;18356;52.380;9.820;2023-02-03T15:11:44;22.90;;;4.27;;
31786;SDS011;18356;52.380;9.820;2023-02-03T15:14:21;23.50;;;4.30;;
31786;SDS011;18356;52.380;9.820;2023-02-03T15:16:58;22.73;;;4.50;;
31786;SDS011;18356;52.380;9.820;2023-02-03T15:19:26;24.73;;;4.20;;
31786;SDS011;18356;52.380;9.820;2023-02-03T15:21:53;25.33;;;4.63;;
31786;SDS011;18356;52.380;9.820;2023-02-03T15:24:20;25.43;;;5.27;;
31786;SDS011;18356;52.380;9.820;2023-02-03T15:26:51;24.17;;;4.07;;
31786;SDS011;18356;52.380;9.820;2023-02-03T15:29:31;26.37;;;4.40;;
31786;SDS011;18356;52.380;9.820;2023-02-03T15:32:28;22.30;;;3.97;;
31786;SDS011;18356;52.380;9.820;2023-02-03T15:35:16;22.67;;;4.33;;
31786;SDS011;18356;52.380;9.820;2023-02-03T15:40:21;31.63;;;8.07;;
31786;SDS011;18356;52.380;9.820;2023-02-03T15:45:21;23.93;;;4.27;;
31786;SDS011;18356;52.380;9.820;2023-02-03T15:47:56;26.17;;;4.87;;
31786;SDS011;18356;52.380;9.820;2023-02-03T15:50:39;22.90;;;4.40;;
31786;SDS011;18356;52.380;9.820;2023-02-03T15:53:19;16.43;;;3.17;;
31786;SDS011;18356;52.380;9.820;2023-02-03T15:55:51;26.87;;;6.13;;
31786;SDS011;18356;52.380;9.820;2023-02-03T15:58:22;32.00;;;4.60;;
31786;SDS011;18356;52.380;9.820;2023-02-03T16:00:55;32.73;;;4.27;;
31786;SDS011;18356;52.380;9.820;2023-02-03T16:03:39;36.47;;;8.83;;
31786;SDS011;18356;52.380;9.820;2023-02-03T16:06:14;27.60;;;4.80;;
31786;SDS011;18356;52.380;9.820;2023-02-03T16:08:44;37.33;;;5.73;;
31786;SDS011;18356;52.380;9.820;2023-02-03T16:11:20;22.50;;;4.43;;
31786;SDS011;18356;52.380;9.820;2023-02-03T16:20:17;23.03;;;4.10;;
31786;SDS011;18356;52.380;9.820;2023-02-03T16:22:46;25.17;;;3.90;;
31786;SDS011;18356;52.380;9.820;2023-02-03T16:25:26;31.60;;;4.90;;
31786;SDS011;18356;52.380;9.820;2023-02-03T16:28:01;30.27;;;5.30;;
31786;SDS011;18356;52.380;9.820;2023-02-03T16:30:55;31.27;;;5.03;;
31786;SDS011;18356;52.380;9.820;2023-02-03T16:33:45;33.93;;;4.87;;
31786;SDS011;18356;52.380;9.820;2023-02-03T16:36:30;27.33;;;4.50;;
31786;SDS011;18356;52.380;9.820;2023-02-03T16:39:15;27.87;;;4.33;;
31786;SDS011;18356;52.380;9.820;2023-02-03T16:42:00;28.53;;;5.27;;
31786;SDS011;18356;52.380;9.820;2023-02-03T16:44:50;31.03;;;4.67;;
31786;SDS011;18356;52.380;9.820;2023-02-03T16:47:37;38.10;;;6.40;;
31786;SDS011;18356;52.380;9.820;2023-02-03T16:50:22;30.87;;;5.27;;
31786;SDS011;18356;52.380;9.820;2023-02-03T16:53:14;35.90;;;5.80;;
31786;SDS011;18356;52.380;9.820;2023-02-03T16:55:42;36.03;;;5.23;;
31786;SDS011;18356;52.380;9.820;2023-02-03T16:58:09;31.00;;;5.10;;
31786;SDS011;18356;52.380;9.820;2023-02-03T17:00:40;27.63;;;5.57;;
31786;SDS011;18356;52.380;9.820;2023-02-03T17:03:07;37.80;;;4.87;;
31786;SDS011;18356;52.380;9.820;2023-02-03T17:05:37;36.07;;;6.30;;
31786;SDS011;18356;52.380;9.820;2023-02-03T17:08:04;26.70;;;5.10;;
31786;SDS011;18356;52.380;9.820;2023-02-03T17:10:33;38.80;;;5.33;;
31786;SDS011;18356;52.380;9.820;2023-02-03T17:12:59;35.00;;;5.70;;
31786;SDS011;18356;52.380;9.820;2023-02-03T17:15:26;38.53;;;6.37;;
31786;SDS011;18356;52.380;9.820;2023-02-03T17:17:52;36.10;;;5.97;;
31786;SDS011;18356;52.380;9.820;2023-02-03T17:20:18;39.63;;;6.80;;
31786;SDS011;18356;52.380;9.820;2023-02-03T17:22:45;36.83;;;5.47;;
31786;SDS011;18356;52.380;9.820;2023-02-03T17:25:15;35.50;;;5.60;;
31786;SDS011;18356;52.380;9.820;2023-02-03T17:27:42;36.77;;;5.50;;
31786;SDS011;18356;52.380;9.820;2023-02-03T17:30:08;34.67;;;5.20;;